createdAt,value
2019-05-11T00:01:14.770Z,99315.80
2019-05-11T00:03:43.665Z,99311.39
2019-05-11T00:06:12.658Z,99157.34
2019-05-11T00:08:41.514Z,99314.37
2019-05-11T00:11:10.537Z,99312.09
2019-05-11T00:13:39.495Z,99309.88
2019-05-11T00:16:08.729Z,99309.00
2019-05-11T00:18:37.837Z,99299.83
2019-05-11T00:21:06.877Z,99292.77
2019-05-11T00:23:36.006Z,99285.77
2019-05-11T00:26:05.077Z,99281.82
2019-05-11T00:28:34.151Z,99276.97
2019-05-11T00:31:03.267Z,99278.31
2019-05-11T00:33:32.346Z,99270.94
2019-05-11T00:36:01.427Z,99272.34
2019-05-11T00:38:30.532Z,99274.58
2019-05-11T00:40:59.604Z,99278.12
2019-05-11T00:43:28.672Z,99272.86
2019-05-11T00:45:57.737Z,99277.24
2019-05-11T00:48:26.854Z,99275.02
2019-05-11T00:50:56.015Z,99272.86
2019-05-11T00:53:25.091Z,99271.08
2019-05-11T00:55:54.163Z,99271.08
2019-05-11T00:58:23.265Z,99262.38
2019-05-11T01:00:52.314Z,99270.27
2019-05-11T01:03:21.387Z,99277.65
2019-05-11T01:05:50.442Z,99284.19
2019-05-11T01:08:19.535Z,99283.69
2019-05-11T01:10:48.561Z,99283.19
2019-05-11T01:13:17.653Z,99280.12
2019-05-11T01:15:46.756Z,99285.30
2019-05-11T01:18:15.797Z,99275.59
2019-05-11T01:20:45.124Z,99276.89
2019-05-11T01:23:14.193Z,99271.13
2019-05-11T01:25:43.282Z,99277.70
2019-05-11T01:28:12.393Z,99274.23
2019-05-11T01:30:41.481Z,99265.88
2019-05-11T01:33:10.568Z,99271.60
2019-05-11T01:35:39.672Z,99270.69
2019-05-11T01:38:08.734Z,99275.05
2019-05-11T01:40:37.853Z,99273.73
2019-05-11T01:43:06.936Z,99276.80
2019-05-11T01:45:36.306Z,99269.79
2019-05-11T01:48:05.406Z,99265.84
2019-05-11T01:50:34.480Z,99260.19
2019-05-11T01:53:03.529Z,99258.17
2019-05-11T01:55:32.608Z,99258.23
2019-05-11T01:58:01.621Z,99258.70
2019-05-11T02:00:30.682Z,99260.02
2019-05-11T02:02:59.765Z,99250.01
2019-05-11T02:05:32.024Z,99246.59
2019-05-11T02:08:01.915Z,99248.38
2019-05-11T02:10:31.279Z,99241.58
2019-05-11T02:13:00.357Z,99239.45
2019-05-11T02:15:29.472Z,99236.97
2019-05-11T02:17:58.514Z,99230.45
2019-05-11T02:20:27.567Z,99232.20
2019-05-11T02:22:56.566Z,99224.73
2019-05-11T02:25:25.628Z,99231.71
2019-05-11T02:27:54.647Z,99228.27
2019-05-11T02:30:23.718Z,99238.39
2019-05-11T02:32:52.777Z,99235.36
2019-05-11T02:35:21.831Z,99237.48
2019-05-11T02:37:50.875Z,99239.16
2019-05-11T02:40:21.210Z,99237.34
2019-05-11T02:42:50.270Z,99239.94
2019-05-11T02:45:30.924Z,99238.16
2019-05-11T02:47:59.956Z,99247.77
2019-05-11T02:50:29.061Z,99240.78
2019-05-11T02:52:58.073Z,99237.72
2019-05-11T02:55:27.126Z,99238.54
2019-05-11T02:57:56.199Z,99236.77
2019-05-11T03:00:39.270Z,99240.67
2019-05-11T03:03:08.291Z,99239.36
2019-05-11T03:05:37.314Z,99240.27
2019-05-11T03:08:06.411Z,99239.80
2019-05-11T03:10:35.512Z,99240.20
2019-05-11T03:13:04.561Z,99241.08
2019-05-11T03:15:33.582Z,99239.36
2019-05-11T03:18:02.753Z,99240.20
2019-05-11T03:20:31.818Z,99244.14
2019-05-11T03:23:00.894Z,99244.20
2019-05-11T03:25:29.904Z,99246.36
2019-05-11T03:27:58.980Z,99250.80
2019-05-11T03:30:28.056Z,99243.36
2019-05-11T03:32:57.141Z,99256.48
2019-05-11T03:35:26.200Z,99263.02
2019-05-11T03:37:55.193Z,99261.71
2019-05-11T03:40:24.244Z,99264.37
2019-05-11T03:42:53.298Z,99263.48
2019-05-11T03:45:22.312Z,99264.37
2019-05-11T03:47:51.415Z,99261.77
2019-05-11T03:50:20.449Z,99264.39
2019-05-11T03:52:49.525Z,99271.38
2019-05-11T03:55:18.556Z,99268.74
2019-05-11T03:57:47.657Z,99266.56
2019-05-11T04:00:16.698Z,99266.06
2019-05-11T04:02:45.721Z,99264.25
2019-05-11T04:05:14.751Z,99265.16
2019-05-11T04:07:43.819Z,99263.05
2019-05-11T04:10:12.890Z,99265.36
2019-05-11T04:12:41.950Z,99271.10
2019-05-11T04:15:11.187Z,99271.57
2019-05-11T04:17:40.280Z,99264.13
2019-05-11T04:20:09.306Z,99266.26
2019-05-11T04:22:38.372Z,99267.69
2019-05-11T04:25:07.421Z,99265.58
2019-05-11T04:27:36.541Z,99253.83
2019-05-11T04:30:06.225Z,99244.66
2019-05-11T04:32:35.296Z,99252.95
2019-05-11T04:35:04.673Z,99251.14
2019-05-11T04:37:33.735Z,99249.83
2019-05-11T04:40:02.806Z,99255.63
2019-05-11T04:42:31.888Z,99265.66
2019-05-11T04:45:00.957Z,99266.13
2019-05-11T04:47:30.037Z,99259.98
2019-05-11T04:49:59.125Z,99261.64
2019-05-11T04:52:28.184Z,99267.25
2019-05-11T04:54:57.186Z,99262.79
2019-05-11T04:57:26.247Z,99256.14
2019-05-11T04:59:55.354Z,99255.70
2019-05-11T05:02:27.184Z,99256.60
2019-05-11T05:04:55.210Z,99256.60
2019-05-11T05:07:24.284Z,99255.23
2019-05-11T05:09:53.386Z,99253.89
2019-05-11T05:12:22.501Z,99255.17
2019-05-11T05:14:51.607Z,99261.71
2019-05-11T05:17:20.763Z,99268.16
2019-05-11T05:19:49.808Z,99268.98
2019-05-11T05:22:18.924Z,99271.14
2019-05-11T05:24:48.067Z,99270.77
2019-05-11T05:27:17.137Z,99270.27
2019-05-11T05:29:46.184Z,99275.49
2019-05-11T05:32:15.287Z,99266.61
2019-05-11T05:34:44.341Z,99260.86
2019-05-11T05:37:13.510Z,99266.00
2019-05-11T05:39:42.578Z,99261.15
2019-05-11T05:42:11.568Z,99263.37
2019-05-11T05:44:40.754Z,99268.09
2019-05-11T05:47:09.886Z,99262.91
2019-05-11T05:49:39.056Z,99266.41
2019-05-11T05:52:08.150Z,99266.47
2019-05-11T05:54:37.201Z,99267.40
2019-05-11T05:57:06.396Z,99266.59
2019-05-11T05:59:35.538Z,99266.99
2019-05-11T06:02:04.653Z,99272.16
2019-05-11T06:04:36.695Z,99272.03
2019-05-11T06:07:05.786Z,99263.66
2019-05-11T06:09:35.123Z,99263.31
2019-05-11T06:12:04.267Z,99265.97
2019-05-11T06:14:33.326Z,99271.25
2019-05-11T06:17:02.369Z,99268.19
2019-05-11T06:19:31.446Z,99270.63
2019-05-11T06:22:00.580Z,99272.45
2019-05-11T06:24:29.960Z,99274.95
2019-05-11T06:26:59.410Z,99269.14
2019-05-11T06:29:29.085Z,99271.17
2019-05-11T06:31:58.571Z,99274.08
2019-05-11T06:34:27.924Z,99273.08
2019-05-11T06:36:57.573Z,99268.55
2019-05-11T06:39:26.700Z,99276.21
2019-05-11T06:41:55.894Z,99276.05
2019-05-11T06:44:25.101Z,99271.61
2019-05-11T06:46:54.999Z,99270.13
2019-05-11T06:49:24.767Z,99274.44
2019-05-11T06:51:54.150Z,99281.42
2019-05-11T06:54:23.281Z,99276.81
2019-05-11T06:56:54.902Z,99277.02
2019-05-11T06:59:24.461Z,99279.98
2019-05-11T07:01:54.297Z,99281.84
2019-05-11T07:04:23.361Z,99280.28
2019-05-11T07:06:52.613Z,99284.36
2019-05-11T07:09:21.662Z,99292.47
2019-05-11T07:11:50.809Z,99294.48
2019-05-11T07:14:21.495Z,99299.78
2019-05-11T07:16:50.774Z,99299.11
2019-05-11T07:19:19.899Z,99298.30
2019-05-11T07:21:48.974Z,99303.98
2019-05-11T07:24:18.004Z,99298.39
2019-05-11T07:26:47.123Z,99301.86
2019-05-11T07:29:16.133Z,99305.00
2019-05-11T07:31:45.225Z,99309.34
2019-05-11T07:34:14.297Z,99309.56
2019-05-11T07:36:43.359Z,99306.42
2019-05-11T07:39:12.426Z,99306.19
2019-05-11T07:41:41.513Z,99308.12
2019-05-11T07:44:10.680Z,99313.31
2019-05-11T07:46:39.950Z,99319.89
2019-05-11T07:49:09.077Z,99318.95
2019-05-11T07:51:38.883Z,99322.02
2019-05-11T07:54:08.581Z,99318.41
2019-05-11T07:56:38.976Z,99315.98
2019-05-11T07:59:08.432Z,99322.25
2019-05-11T08:01:38.702Z,99318.97
2019-05-11T08:04:08.054Z,99331.00
2019-05-11T08:06:39.122Z,99328.44
2019-05-11T08:09:08.646Z,99330.49
2019-05-11T08:11:38.926Z,99332.44
2019-05-11T08:14:08.246Z,99326.92
2019-05-11T08:16:39.150Z,99334.20
2019-05-11T08:19:10.749Z,99335.48
2019-05-11T08:21:41.963Z,99334.49
2019-05-11T08:24:11.254Z,99333.83
2019-05-11T08:26:40.894Z,99335.36
2019-05-11T08:29:10.073Z,99342.65
2019-05-11T08:31:40.323Z,99345.53
2019-05-11T08:34:09.477Z,99345.59
2019-05-11T08:36:38.786Z,99358.18
2019-05-11T08:39:08.409Z,99358.78
2019-05-11T08:41:38.610Z,99366.03
2019-05-11T08:44:08.913Z,99370.19
2019-05-11T08:46:38.717Z,99368.36
2019-05-11T08:49:08.778Z,99374.46
2019-05-11T08:51:38.794Z,99380.38
2019-05-11T08:54:09.031Z,99379.50
2019-05-11T08:56:40.024Z,99383.86
2019-05-11T08:59:09.122Z,99388.05
2019-05-11T09:01:39.322Z,99392.01
2019-05-11T09:04:09.093Z,99397.32
2019-05-11T09:06:38.281Z,99399.95
2019-05-11T09:09:09.018Z,99405.08
2019-05-11T09:11:39.043Z,99414.11
2019-05-11T09:14:08.539Z,99408.56
2019-05-11T09:16:38.380Z,99421.89
2019-05-11T09:19:08.833Z,99416.88
2019-05-11T09:21:38.613Z,99423.72
2019-05-11T09:24:08.409Z,99431.08
2019-05-11T09:26:38.861Z,99436.44
2019-05-11T09:29:08.850Z,99443.59
2019-05-11T09:31:38.426Z,99446.34
2019-05-11T09:34:09.047Z,99445.59
2019-05-11T09:36:39.083Z,99449.02
2019-05-11T09:39:09.094Z,99456.57
2019-05-11T09:41:38.525Z,99450.53
2019-05-11T09:44:09.016Z,99451.45
2019-05-11T09:46:38.665Z,99457.41
2019-05-11T09:49:08.175Z,99454.47
2019-05-11T09:51:38.158Z,99461.66
2019-05-11T09:54:08.012Z,99465.94
2019-05-11T09:56:38.158Z,99471.39
2019-05-11T09:59:08.770Z,99473.71
2019-05-11T10:01:38.087Z,99476.55
2019-05-11T10:04:08.974Z,99468.11
2019-05-11T10:06:38.905Z,99483.70
2019-05-11T10:09:08.449Z,99491.50
2019-05-11T10:11:39.940Z,99492.53
2019-05-11T10:14:08.657Z,99498.92
2019-05-11T10:16:38.619Z,99499.04
2019-05-11T10:19:08.593Z,99506.88
2019-05-11T10:21:38.582Z,99500.65
2019-05-11T10:24:08.562Z,99509.94
2019-05-11T10:26:38.466Z,99507.97
2019-05-11T10:29:08.070Z,99511.92
2019-05-11T10:31:38.583Z,99513.14
2019-05-11T10:34:08.797Z,99510.92
2019-05-11T10:36:38.658Z,99514.75
2019-05-11T10:39:09.300Z,99517.11
2019-05-11T10:41:41.369Z,99524.52
2019-05-11T10:44:10.411Z,99530.06
2019-05-11T10:46:39.479Z,99531.61
2019-05-11T10:49:08.570Z,99531.77
2019-05-11T10:51:38.475Z,99528.13
2019-05-11T10:54:08.753Z,99536.50
2019-05-11T10:56:39.017Z,99551.00
2019-05-11T10:59:08.201Z,99556.47
2019-05-11T11:01:38.044Z,99560.45
2019-05-11T11:04:08.014Z,99557.52
2019-05-11T11:06:38.642Z,99552.33
2019-05-11T11:09:09.144Z,99553.08
2019-05-11T11:11:38.406Z,99562.55
2019-05-11T11:14:08.755Z,99560.77
2019-05-11T11:16:42.025Z,99561.97
2019-05-11T11:19:08.891Z,99561.70
2019-05-11T11:21:38.441Z,99567.09
2019-05-11T11:24:07.840Z,99578.75
2019-05-11T11:26:38.157Z,99566.23
2019-05-11T11:29:08.540Z,99567.53
2019-05-11T11:31:38.165Z,99568.94
2019-05-11T11:34:08.235Z,99568.31
2019-05-11T11:36:37.794Z,99586.55
2019-05-11T11:39:08.538Z,99582.16
2019-05-11T11:41:38.046Z,99585.08
2019-05-11T11:44:07.841Z,99587.09
2019-05-11T11:46:51.340Z,99593.83
2019-05-11T11:49:08.512Z,99596.87
2019-05-11T11:51:37.934Z,99606.23
2019-05-11T11:54:08.818Z,99605.94
2019-05-11T11:56:38.338Z,99613.53
2019-05-11T11:59:08.578Z,99617.14
2019-05-11T12:01:39.404Z,99622.52
2019-05-11T12:04:08.509Z,99618.22
2019-05-11T12:06:38.562Z,99631.48
2019-05-11T12:09:11.429Z,99632.25
2019-05-11T12:11:42.560Z,99630.84
2019-05-11T12:14:11.731Z,99641.34
2019-05-11T12:16:40.816Z,99644.95
2019-05-11T12:19:09.973Z,99636.28
2019-05-11T12:21:39.581Z,99643.05
2019-05-11T12:24:08.691Z,99647.84
2019-05-11T12:26:38.875Z,99649.80
2019-05-11T12:29:08.823Z,99653.33
2019-05-11T12:31:38.077Z,99655.22
2019-05-11T12:34:08.716Z,99658.61
2019-05-11T12:36:38.745Z,99674.12
2019-05-11T12:39:09.193Z,99672.78
2019-05-11T12:41:39.039Z,99693.11
2019-05-11T12:44:08.414Z,99691.16
2019-05-11T12:46:39.578Z,99697.02
2019-05-11T12:49:08.537Z,99703.05
2019-05-11T12:51:38.407Z,99707.70
2019-05-11T12:54:08.344Z,99709.97
2019-05-11T12:56:38.329Z,99712.86
2019-05-11T12:59:08.338Z,99720.11
2019-05-11T13:01:38.179Z,99724.28
2019-05-11T13:04:08.878Z,99729.70
2019-05-11T13:06:38.625Z,99740.47
2019-05-11T13:09:09.095Z,99752.58
2019-05-11T13:11:38.342Z,99750.14
2019-05-11T13:14:08.145Z,99755.70
2019-05-11T13:16:38.033Z,99763.84
2019-05-11T13:19:08.405Z,99763.18
2019-05-11T13:21:38.452Z,99770.27
2019-05-11T13:24:08.500Z,99774.62
2019-05-11T13:26:38.312Z,99780.09
2019-05-11T13:29:08.055Z,99781.13
2019-05-11T13:31:38.421Z,99788.91
2019-05-11T13:34:08.473Z,99794.13
2019-05-11T13:36:38.357Z,99800.12
2019-05-11T13:39:08.867Z,99801.84
2019-05-11T13:41:39.169Z,99797.03
2019-05-11T13:44:08.283Z,99806.86
2019-05-11T13:46:38.902Z,99804.42
2019-05-11T13:49:08.678Z,99818.45
2019-05-11T13:51:38.837Z,99819.28
2019-05-11T13:54:10.537Z,99826.76
2019-05-11T13:56:39.460Z,99826.62
2019-05-11T13:59:12.698Z,99832.95
2019-05-11T14:01:49.508Z,99840.91
2019-05-11T14:04:18.582Z,99832.02
2019-05-11T14:06:48.308Z,99835.46
2019-05-11T14:09:18.374Z,99836.79
2019-05-11T14:11:47.998Z,99845.97
2019-05-11T14:14:18.352Z,99843.55
2019-05-11T14:16:53.869Z,99857.60
2019-05-11T14:19:23.044Z,99852.62
2019-05-11T14:21:52.359Z,99864.80
2019-05-11T14:24:21.820Z,99858.68
2019-05-11T14:26:52.129Z,99864.53
2019-05-11T14:29:24.294Z,99872.69
2019-05-11T14:31:53.483Z,99867.38
2019-05-11T14:34:24.749Z,99870.97
2019-05-11T14:36:58.245Z,99879.20
2019-05-11T14:39:28.279Z,99876.59
2019-05-11T14:41:58.672Z,99881.17
2019-05-11T14:44:29.566Z,99895.22
2019-05-11T14:46:59.393Z,99898.05
2019-05-11T14:49:28.734Z,99900.39
2019-05-11T14:51:57.899Z,99902.53
2019-05-11T14:54:28.870Z,99910.67
2019-05-11T14:57:00.956Z,99902.61
2019-05-11T14:59:30.037Z,99913.67
2019-05-11T15:01:59.195Z,99921.55
2019-05-11T15:04:28.806Z,99925.19
2019-05-11T15:06:58.279Z,99923.38
2019-05-11T15:09:28.617Z,99932.02
2019-05-11T15:11:58.231Z,99942.44
2019-05-11T15:14:28.845Z,99937.32
2019-05-11T15:16:58.308Z,99940.63
2019-05-11T15:19:27.837Z,99957.38
2019-05-11T15:21:58.164Z,99955.66
2019-05-11T15:24:28.721Z,99957.45
2019-05-11T15:26:58.480Z,99966.91
2019-05-11T15:29:28.736Z,99971.40
2019-05-11T15:31:58.093Z,99981.29
2019-05-11T15:34:28.953Z,99980.82
2019-05-11T15:36:58.415Z,99978.34
2019-05-11T15:39:28.707Z,99978.34
2019-05-11T15:42:09.381Z,99982.95
2019-05-11T15:44:28.884Z,99981.08
2019-05-11T15:46:58.338Z,99985.30
2019-05-11T15:49:28.352Z,99984.94
2019-05-11T15:51:57.979Z,99994.77
2019-05-11T15:54:28.851Z,100002.75
2019-05-11T15:56:59.927Z,100010.36
2019-05-11T15:59:32.115Z,100007.41
2019-05-11T16:02:01.385Z,100013.30
2019-05-11T16:04:30.525Z,100015.70
2019-05-11T16:07:00.124Z,100013.73
2019-05-11T16:09:48.976Z,100017.95
2019-05-11T16:12:18.337Z,100022.44
2019-05-11T16:14:48.586Z,100028.63
2019-05-11T16:17:18.380Z,100031.45
2019-05-11T16:19:49.055Z,100041.63
2019-05-11T16:22:21.085Z,100039.58
2019-05-11T16:24:49.561Z,100050.08
2019-05-11T16:27:18.695Z,100040.48
2019-05-11T16:29:48.046Z,100044.21
2019-05-11T16:32:17.159Z,100043.92
2019-05-11T16:34:46.399Z,100053.59
2019-05-11T16:37:18.319Z,100065.87
2019-05-11T16:39:49.403Z,100076.45
2019-05-11T16:42:17.686Z,100079.40
2019-05-11T16:44:48.313Z,100087.16
2019-05-11T16:47:18.168Z,100082.80
2019-05-11T16:49:47.459Z,100100.92
2019-05-11T16:52:18.341Z,100088.64
2019-05-11T16:54:47.802Z,100093.55
2019-05-11T16:57:17.699Z,100102.42
2019-05-11T16:59:48.380Z,100101.73
2019-05-11T17:02:18.775Z,100105.85
2019-05-11T17:04:48.057Z,100115.72
2019-05-11T17:07:17.073Z,100119.48
2019-05-11T17:09:48.158Z,100121.51
2019-05-11T17:12:18.007Z,100127.35
2019-05-11T17:14:59.935Z,100137.35
2019-05-11T17:17:29.107Z,100134.63
2019-05-11T17:19:58.941Z,100141.77
2019-05-11T17:22:28.283Z,100141.42
2019-05-11T17:24:58.941Z,100152.31
2019-05-11T17:27:28.636Z,100152.63
2019-05-11T17:29:59.315Z,100156.42
2019-05-11T17:32:29.440Z,100164.98
2019-05-11T17:34:58.695Z,100178.27
2019-05-11T17:37:28.529Z,100174.39
2019-05-11T17:39:58.663Z,100179.77
2019-05-11T17:42:27.983Z,100178.09
2019-05-11T17:44:58.912Z,100182.22
2019-05-11T17:47:28.330Z,100185.89
2019-05-11T17:50:03.501Z,100194.79
2019-05-11T17:52:28.754Z,100197.55
2019-05-11T17:54:58.017Z,100201.16
2019-05-11T17:57:27.743Z,100202.16
2019-05-11T17:59:57.961Z,100211.42
2019-05-11T18:02:28.838Z,100214.55
2019-05-11T18:04:58.482Z,100213.25
2019-05-11T18:07:30.717Z,100219.03
2019-05-11T18:09:58.730Z,100222.63
2019-05-11T18:12:28.585Z,100231.03
2019-05-11T18:14:58.584Z,100237.25
2019-05-11T18:17:28.097Z,100238.16
2019-05-11T18:20:06.642Z,100238.55
2019-05-11T18:22:28.565Z,100239.80
2019-05-11T18:24:58.147Z,100242.94
2019-05-11T18:27:27.857Z,100242.53
2019-05-11T18:30:03.017Z,100246.58
2019-05-11T18:32:32.188Z,100252.27
2019-05-11T18:35:01.607Z,100262.37
2019-05-11T18:37:30.823Z,100265.06
2019-05-11T18:39:59.902Z,100267.81
2019-05-11T18:42:29.059Z,100281.97
2019-05-11T18:45:00.248Z,100271.54
2019-05-11T18:47:29.943Z,100290.12
2019-05-11T18:49:59.389Z,100262.83
2019-05-11T18:52:28.456Z,100299.20
2019-05-11T18:54:57.895Z,100303.31
2019-05-11T18:57:27.821Z,100310.93
2019-05-11T18:59:58.723Z,100317.23
2019-05-11T19:02:28.039Z,100323.08
2019-05-11T19:04:58.140Z,100319.72
2019-05-11T19:07:28.322Z,100326.83
2019-05-11T19:09:57.803Z,100330.47
2019-05-11T19:12:27.914Z,100336.32
2019-05-11T19:14:58.729Z,100343.00
2019-05-11T19:17:29.051Z,100350.14
2019-05-11T19:19:58.236Z,100362.11
2019-05-11T19:22:28.880Z,100372.80
2019-05-11T19:24:58.356Z,100378.69
2019-05-11T19:27:28.845Z,100380.63
2019-05-11T19:29:58.023Z,100386.89
2019-05-11T19:32:28.241Z,100395.34
2019-05-11T19:34:58.088Z,100406.44
2019-05-11T19:37:27.988Z,100408.30
2019-05-11T19:39:58.004Z,100418.06
2019-05-11T19:42:28.527Z,100423.41
2019-05-11T19:44:57.799Z,100434.95
2019-05-11T19:47:28.232Z,100437.69
2019-05-11T19:49:58.250Z,100439.97
2019-05-11T19:52:28.220Z,100456.75
2019-05-11T19:54:57.835Z,100462.50
2019-05-11T19:57:28.294Z,100466.51
2019-05-11T19:59:58.346Z,100467.03
2019-05-11T20:02:28.355Z,100482.44
2019-05-11T20:04:58.509Z,100488.25
2019-05-11T20:07:27.702Z,100490.92
2019-05-11T20:09:56.767Z,100498.00
2019-05-11T20:12:25.788Z,100505.94
2019-05-11T20:14:54.951Z,100519.12
2019-05-11T20:17:24.039Z,100523.06
2019-05-11T20:19:53.078Z,100526.19
2019-05-11T20:22:22.113Z,100524.48
2019-05-11T20:24:51.228Z,100531.08
2019-05-11T20:27:20.301Z,100535.95
2019-05-11T20:29:49.407Z,100539.03
2019-05-11T20:32:18.843Z,100536.43
2019-05-11T20:34:48.321Z,100543.02
2019-05-11T20:37:18.217Z,100551.39
2019-05-11T20:39:48.152Z,100552.30
2019-05-11T20:42:18.137Z,100558.45
2019-05-11T20:44:47.327Z,100571.19
2019-05-11T20:47:17.835Z,100580.84
2019-05-11T20:49:48.177Z,100584.34
2019-05-11T20:52:17.906Z,100594.84
2019-05-11T20:54:47.730Z,100600.54
2019-05-11T20:57:17.982Z,100611.48
2019-05-11T20:59:47.187Z,100614.58
2019-05-11T21:02:18.280Z,100616.79
2019-05-11T21:04:49.129Z,100613.28
2019-05-11T21:07:19.915Z,100617.69
2019-05-11T21:09:48.620Z,100621.17
2019-05-11T21:12:18.496Z,100620.31
2019-05-11T21:14:48.623Z,100633.45
2019-05-11T21:17:18.271Z,100635.20
2019-05-11T21:19:47.885Z,100633.47
2019-05-11T21:22:17.246Z,100641.77
2019-05-11T21:24:49.418Z,100639.59
2019-05-11T21:27:19.938Z,100645.30
2019-05-11T21:29:49.093Z,100647.45
2019-05-11T21:32:18.539Z,100644.41
2019-05-11T21:38:17.730Z,100659.70
2019-05-11T21:40:48.546Z,100671.91
2019-05-11T21:43:17.642Z,100678.02
2019-05-11T21:45:46.689Z,100681.95
2019-05-11T21:48:15.720Z,100686.33
2019-05-11T21:50:44.897Z,100684.98
2019-05-11T21:53:13.932Z,100682.38
2019-05-11T21:55:42.998Z,100686.72
2019-05-11T21:58:12.116Z,100697.63
2019-05-11T22:00:41.251Z,100703.28
2019-05-11T22:03:10.571Z,100703.71
2019-05-11T22:05:39.775Z,100704.13
2019-05-11T22:08:08.808Z,100710.67
2019-05-11T22:10:38.554Z,100715.02
2019-05-11T22:13:07.796Z,100722.84
2019-05-11T22:15:38.614Z,100722.38
2019-05-11T22:18:08.164Z,100723.67
2019-05-11T22:20:40.569Z,100729.34
2019-05-11T22:23:08.627Z,100726.23
2019-05-11T22:25:38.324Z,100728.39
2019-05-11T22:28:08.405Z,100728.37
2019-05-11T22:30:39.311Z,100729.64
2019-05-11T22:33:08.947Z,100735.77
2019-05-11T22:35:38.405Z,100731.36
2019-05-11T22:38:08.399Z,100740.52
2019-05-11T22:40:38.437Z,100740.46
2019-05-11T22:43:09.313Z,100745.25
2019-05-11T22:45:38.543Z,100752.22
2019-05-11T22:48:08.022Z,100746.05
2019-05-11T22:50:38.143Z,100759.09
2019-05-11T22:53:08.649Z,100759.54
2019-05-11T22:55:38.780Z,100759.05
2019-05-11T22:58:08.543Z,100763.43
2019-05-11T23:00:41.965Z,100766.42
2019-05-11T23:03:11.265Z,100775.16
2019-05-11T23:05:40.842Z,100782.52
2019-05-11T23:08:09.914Z,100784.64
2019-05-11T23:10:38.975Z,100792.94
2019-05-11T23:13:11.080Z,100792.48
2019-05-11T23:15:40.368Z,100800.25
2019-05-11T23:18:09.810Z,100809.39
2019-05-11T23:20:38.985Z,100819.41
2019-05-11T23:23:08.795Z,100817.19
2019-05-11T23:25:38.137Z,100821.09
2019-05-11T23:28:07.978Z,100827.16
2019-05-11T23:30:38.913Z,100832.34
2019-05-11T23:33:08.044Z,100845.39
2019-05-11T23:35:38.252Z,100842.69
2019-05-11T23:38:07.538Z,100848.81
2019-05-11T23:40:37.846Z,100843.11
2019-05-11T23:43:08.559Z,100841.75
2019-05-11T23:45:38.276Z,100844.78
2019-05-11T23:48:07.504Z,100842.97
2019-05-11T23:50:38.623Z,100841.60
2019-05-11T23:53:10.069Z,100845.94
2019-05-11T23:55:38.175Z,100855.48
2019-05-11T23:58:08.221Z,100852.84
